sensor_id;sensor_type;location;lat;lon;timestamp;temperature;humidity
46366;DHT22;32073;49.166;8.076;2023-03-23T00:01:59;18.10;43.20
46366;DHT22;32073;49.166;8.076;2023-03-23T00:05:59;18.10;43.30
46366;DHT22;32073;49.166;8.076;2023-03-23T00:10:05;18.10;43.30
46366;DHT22;32073;49.166;8.076;2023-03-23T00:14:07;18.00;43.30
46366;DHT22;32073;49.166;8.076;2023-03-23T00:18:13;18.00;43.50
46366;DHT22;32073;49.166;8.076;2023-03-23T00:22:22;17.90;43.50
46366;DHT22;32073;49.166;8.076;2023-03-23T00:26:25;17.90;43.00
46366;DHT22;32073;49.166;8.076;2023-03-23T00:30:28;17.90;43.60
46366;DHT22;32073;49.166;8.076;2023-03-23T00:34:30;17.90;43.90
46366;DHT22;32073;49.166;8.076;2023-03-23T00:38:34;17.80;43.90
46366;DHT22;32073;49.166;8.076;2023-03-23T00:42:35;17.80;44.00
46366;DHT22;32073;49.166;8.076;2023-03-23T00:46:38;17.80;44.10
46366;DHT22;32073;49.166;8.076;2023-03-23T00:50:44;17.80;44.10
46366;DHT22;32073;49.166;8.076;2023-03-23T00:54:46;17.70;44.20
46366;DHT22;32073;49.166;8.076;2023-03-23T00:58:46;17.70;44.20
46366;DHT22;32073;49.166;8.076;2023-03-23T01:02:47;17.70;44.20
46366;DHT22;32073;49.166;8.076;2023-03-23T01:06:49;17.70;44.30
46366;DHT22;32073;49.166;8.076;2023-03-23T01:10:51;17.70;44.30
46366;DHT22;32073;49.166;8.076;2023-03-23T01:14:51;17.70;44.30
46366;DHT22;32073;49.166;8.076;2023-03-23T01:18:52;17.70;44.40
46366;DHT22;32073;49.166;8.076;2023-03-23T01:22:53;17.70;44.50
46366;DHT22;32073;49.166;8.076;2023-03-23T01:27:00;17.70;44.60
46366;DHT22;32073;49.166;8.076;2023-03-23T01:31:11;17.70;44.60
46366;DHT22;32073;49.166;8.076;2023-03-23T01:35:14;17.60;44.70
46366;DHT22;32073;49.166;8.076;2023-03-23T01:39:15;17.70;44.70
46366;DHT22;32073;49.166;8.076;2023-03-23T01:43:16;17.60;44.70
46366;DHT22;32073;49.166;8.076;2023-03-23T01:47:20;17.70;44.70
46366;DHT22;32073;49.166;8.076;2023-03-23T01:51:24;17.60;44.70
46366;DHT22;32073;49.166;8.076;2023-03-23T01:55:27;17.70;44.80
46366;DHT22;32073;49.166;8.076;2023-03-23T01:59:29;17.70;44.80
46366;DHT22;32073;49.166;8.076;2023-03-23T02:03:31;17.70;44.80
46366;DHT22;32073;49.166;8.076;2023-03-23T02:07:33;17.70;44.80
46366;DHT22;32073;49.166;8.076;2023-03-23T02:11:34;17.70;44.80
46366;DHT22;32073;49.166;8.076;2023-03-23T02:20:32;17.70;44.90
46366;DHT22;32073;49.166;8.076;2023-03-23T02:24:50;17.70;45.00
46366;DHT22;32073;49.166;8.076;2023-03-23T02:29:30;17.70;45.00
46366;DHT22;32073;49.166;8.076;2023-03-23T02:34:26;17.70;45.10
46366;DHT22;32073;49.166;8.076;2023-03-23T02:38:35;17.70;45.10
46366;DHT22;32073;49.166;8.076;2023-03-23T02:42:43;17.60;45.10
46366;DHT22;32073;49.166;8.076;2023-03-23T02:46:46;17.60;45.00
46366;DHT22;32073;49.166;8.076;2023-03-23T02:50:51;17.70;45.10
46366;DHT22;32073;49.166;8.076;2023-03-23T02:54:54;17.60;45.00
46366;DHT22;32073;49.166;8.076;2023-03-23T02:58:55;17.60;45.00
46366;DHT22;32073;49.166;8.076;2023-03-23T03:02:57;17.60;45.00
46366;DHT22;32073;49.166;8.076;2023-03-23T03:11:27;17.60;45.20
46366;DHT22;32073;49.166;8.076;2023-03-23T03:15:33;17.60;45.10
46366;DHT22;32073;49.166;8.076;2023-03-23T03:19:43;17.60;45.30
46366;DHT22;32073;49.166;8.076;2023-03-23T03:23:46;17.60;45.40
46366;DHT22;32073;49.166;8.076;2023-03-23T03:27:49;17.70;45.00
46366;DHT22;32073;49.166;8.076;2023-03-23T03:31:53;17.50;45.10
46366;DHT22;32073;49.166;8.076;2023-03-23T03:36:03;17.60;45.40
46366;DHT22;32073;49.166;8.076;2023-03-23T03:40:06;17.50;45.50
46366;DHT22;32073;49.166;8.076;2023-03-23T03:44:11;17.50;45.50
46366;DHT22;32073;49.166;8.076;2023-03-23T03:48:12;17.40;45.50
46366;DHT22;32073;49.166;8.076;2023-03-23T03:52:13;17.50;45.50
46366;DHT22;32073;49.166;8.076;2023-03-23T03:56:14;17.50;45.70
46366;DHT22;32073;49.166;8.076;2023-03-23T04:00:16;17.50;45.80
46366;DHT22;32073;49.166;8.076;2023-03-23T04:04:17;17.50;46.40
46366;DHT22;32073;49.166;8.076;2023-03-23T04:08:18;17.50;45.80
46366;DHT22;32073;49.166;8.076;2023-03-23T04:12:19;17.50;45.80
46366;DHT22;32073;49.166;8.076;2023-03-23T04:16:19;17.50;45.90
46366;DHT22;32073;49.166;8.076;2023-03-23T04:20:21;17.50;45.90
46366;DHT22;32073;49.166;8.076;2023-03-23T04:24:22;17.50;46.10
46366;DHT22;32073;49.166;8.076;2023-03-23T04:28:24;17.50;46.20
46366;DHT22;32073;49.166;8.076;2023-03-23T04:32:26;17.50;46.30
46366;DHT22;32073;49.166;8.076;2023-03-23T04:36:28;17.50;46.40
46366;DHT22;32073;49.166;8.076;2023-03-23T04:40:30;17.50;46.60
46366;DHT22;32073;49.166;8.076;2023-03-23T04:44:30;17.40;46.80
46366;DHT22;32073;49.166;8.076;2023-03-23T04:48:33;17.50;46.90
46366;DHT22;32073;49.166;8.076;2023-03-23T04:52:33;17.40;47.00
46366;DHT22;32073;49.166;8.076;2023-03-23T04:56:34;17.30;47.20
46366;DHT22;32073;49.166;8.076;2023-03-23T05:00:36;17.30;47.10
46366;DHT22;32073;49.166;8.076;2023-03-23T05:04:37;17.30;47.40
46366;DHT22;32073;49.166;8.076;2023-03-23T05:08:38;17.30;47.20
46366;DHT22;32073;49.166;8.076;2023-03-23T05:12:42;17.20;47.10
46366;DHT22;32073;49.166;8.076;2023-03-23T05:16:43;17.20;47.80
46366;DHT22;32073;49.166;8.076;2023-03-23T05:20:47;17.20;47.20
46366;DHT22;32073;49.166;8.076;2023-03-23T05:24:49;17.20;47.40
46366;DHT22;32073;49.166;8.076;2023-03-23T05:28:52;17.10;47.40
46366;DHT22;32073;49.166;8.076;2023-03-23T05:32:53;17.10;47.40
46366;DHT22;32073;49.166;8.076;2023-03-23T05:36:54;17.10;47.40
46366;DHT22;32073;49.166;8.076;2023-03-23T05:40:58;17.10;47.50
46366;DHT22;32073;49.166;8.076;2023-03-23T05:45:03;17.10;47.70
46366;DHT22;32073;49.166;8.076;2023-03-23T05:49:05;17.10;47.70
46366;DHT22;32073;49.166;8.076;2023-03-23T05:53:06;17.10;47.80
46366;DHT22;32073;49.166;8.076;2023-03-23T05:57:07;17.10;47.90
46366;DHT22;32073;49.166;8.076;2023-03-23T06:01:09;17.10;47.90
46366;DHT22;32073;49.166;8.076;2023-03-23T06:05:10;17.10;47.90
46366;DHT22;32073;49.166;8.076;2023-03-23T06:09:11;17.20;48.00
46366;DHT22;32073;49.166;8.076;2023-03-23T06:13:12;17.20;48.00
46366;DHT22;32073;49.166;8.076;2023-03-23T06:17:16;17.20;48.00
46366;DHT22;32073;49.166;8.076;2023-03-23T06:21:17;17.20;48.00
46366;DHT22;32073;49.166;8.076;2023-03-23T06:25:23;17.20;48.00
46366;DHT22;32073;49.166;8.076;2023-03-23T06:29:24;17.20;48.10
46366;DHT22;32073;49.166;8.076;2023-03-23T06:33:25;17.30;48.20
46366;DHT22;32073;49.166;8.076;2023-03-23T06:37:26;17.30;48.20
46366;DHT22;32073;49.166;8.076;2023-03-23T06:41:26;17.30;48.20
46366;DHT22;32073;49.166;8.076;2023-03-23T06:45:27;17.30;48.30
46366;DHT22;32073;49.166;8.076;2023-03-23T06:49:27;17.30;48.60
46366;DHT22;32073;49.166;8.076;2023-03-23T06:53:28;17.30;48.60
46366;DHT22;32073;49.166;8.076;2023-03-23T06:57:29;17.20;48.80
46366;DHT22;32073;49.166;8.076;2023-03-23T07:01:30;17.20;49.00
46366;DHT22;32073;49.166;8.076;2023-03-23T07:05:34;17.10;49.10
46366;DHT22;32073;49.166;8.076;2023-03-23T07:09:35;17.10;49.50
46366;DHT22;32073;49.166;8.076;2023-03-23T07:13:36;17.10;49.50
46366;DHT22;32073;49.166;8.076;2023-03-23T07:17:38;17.10;49.70
46366;DHT22;32073;49.166;8.076;2023-03-23T07:21:40;17.10;49.80
46366;DHT22;32073;49.166;8.076;2023-03-23T07:25:41;17.10;49.90
46366;DHT22;32073;49.166;8.076;2023-03-23T07:29:43;17.10;50.10
46366;DHT22;32073;49.166;8.076;2023-03-23T07:33:44;17.20;50.30
46366;DHT22;32073;49.166;8.076;2023-03-23T07:37:45;17.10;50.20
46366;DHT22;32073;49.166;8.076;2023-03-23T07:41:49;17.10;50.30
46366;DHT22;32073;49.166;8.076;2023-03-23T07:45:50;17.10;50.30
46366;DHT22;32073;49.166;8.076;2023-03-23T07:49:50;17.10;50.60
46366;DHT22;32073;49.166;8.076;2023-03-23T07:53:51;17.20;50.60
46366;DHT22;32073;49.166;8.076;2023-03-23T07:57:53;17.30;50.60
46366;DHT22;32073;49.166;8.076;2023-03-23T08:01:54;17.30;50.60
46366;DHT22;32073;49.166;8.076;2023-03-23T08:05:58;17.30;50.40
46366;DHT22;32073;49.166;8.076;2023-03-23T08:09:59;17.40;50.60
46366;DHT22;32073;49.166;8.076;2023-03-23T08:14:01;17.50;50.50
46366;DHT22;32073;49.166;8.076;2023-03-23T08:18:03;17.50;50.50
46366;DHT22;32073;49.166;8.076;2023-03-23T08:22:04;17.60;50.50
46366;DHT22;32073;49.166;8.076;2023-03-23T08:26:06;17.70;50.40
46366;DHT22;32073;49.166;8.076;2023-03-23T08:30:08;17.80;50.40
46366;DHT22;32073;49.166;8.076;2023-03-23T08:34:10;17.80;50.40
46366;DHT22;32073;49.166;8.076;2023-03-23T08:38:11;17.90;50.30
46366;DHT22;32073;49.166;8.076;2023-03-23T08:42:13;18.00;50.40
46366;DHT22;32073;49.166;8.076;2023-03-23T08:46:14;18.00;50.20
46366;DHT22;32073;49.166;8.076;2023-03-23T08:50:16;18.00;50.10
46366;DHT22;32073;49.166;8.076;2023-03-23T08:54:18;18.00;50.30
46366;DHT22;32073;49.166;8.076;2023-03-23T08:58:19;18.00;50.40
46366;DHT22;32073;49.166;8.076;2023-03-23T09:02:20;18.00;50.50
46366;DHT22;32073;49.166;8.076;2023-03-23T09:06:21;18.00;50.80
46366;DHT22;32073;49.166;8.076;2023-03-23T09:10:22;18.10;50.80
46366;DHT22;32073;49.166;8.076;2023-03-23T09:14:24;18.10;50.70
46366;DHT22;32073;49.166;8.076;2023-03-23T09:18:25;18.20;50.80
46366;DHT22;32073;49.166;8.076;2023-03-23T09:22:26;18.10;51.10
46366;DHT22;32073;49.166;8.076;2023-03-23T09:26:28;18.10;51.20
46366;DHT22;32073;49.166;8.076;2023-03-23T09:30:32;18.10;51.40
46366;DHT22;32073;49.166;8.076;2023-03-23T09:34:33;18.10;52.60
46366;DHT22;32073;49.166;8.076;2023-03-23T09:38:36;18.10;51.90
46366;DHT22;32073;49.166;8.076;2023-03-23T09:42:46;18.20;52.20
46366;DHT22;32073;49.166;8.076;2023-03-23T09:46:52;18.30;52.40
46366;DHT22;32073;49.166;8.076;2023-03-23T09:51:11;18.40;52.40
46366;DHT22;32073;49.166;8.076;2023-03-23T09:55:29;18.40;52.30
46366;DHT22;32073;49.166;8.076;2023-03-23T09:59:59;18.50;52.20
46366;DHT22;32073;49.166;8.076;2023-03-23T10:04:27;18.60;52.30
46366;DHT22;32073;49.166;8.076;2023-03-23T10:08:33;18.60;52.50
46366;DHT22;32073;49.166;8.076;2023-03-23T10:13:07;18.70;52.30
46366;DHT22;32073;49.166;8.076;2023-03-23T10:17:28;18.70;52.40
46366;DHT22;32073;49.166;8.076;2023-03-23T10:21:31;18.70;52.60
46366;DHT22;32073;49.166;8.076;2023-03-23T10:25:38;18.60;52.60
46366;DHT22;32073;49.166;8.076;2023-03-23T10:29:46;18.60;52.90
46366;DHT22;32073;49.166;8.076;2023-03-23T10:33:52;18.60;53.20
46366;DHT22;32073;49.166;8.076;2023-03-23T10:38:05;18.80;52.30
46366;DHT22;32073;49.166;8.076;2023-03-23T10:42:11;18.80;53.50
46366;DHT22;32073;49.166;8.076;2023-03-23T10:46:21;18.90;53.10
46366;DHT22;32073;49.166;8.076;2023-03-23T10:50:37;18.90;53.40
46366;DHT22;32073;49.166;8.076;2023-03-23T10:55:12;19.00;53.20
46366;DHT22;32073;49.166;8.076;2023-03-23T10:59:27;19.00;53.20
46366;DHT22;32073;49.166;8.076;2023-03-23T11:03:42;19.10;53.40
46366;DHT22;32073;49.166;8.076;2023-03-23T11:07:52;19.10;53.50
46366;DHT22;32073;49.166;8.076;2023-03-23T11:11:55;19.20;53.60
46366;DHT22;32073;49.166;8.076;2023-03-23T11:15:56;19.30;53.50
46366;DHT22;32073;49.166;8.076;2023-03-23T11:19:56;19.40;53.20
46366;DHT22;32073;49.166;8.076;2023-03-23T11:23:59;19.50;53.00
46366;DHT22;32073;49.166;8.076;2023-03-23T11:28:00;19.60;52.80
46366;DHT22;32073;49.166;8.076;2023-03-23T11:32:06;19.70;52.70
46366;DHT22;32073;49.166;8.076;2023-03-23T11:36:12;19.80;52.40
46366;DHT22;32073;49.166;8.076;2023-03-23T11:40:19;19.90;52.20
46366;DHT22;32073;49.166;8.076;2023-03-23T11:44:26;20.00;52.20
46366;DHT22;32073;49.166;8.076;2023-03-23T11:49:05;20.00;51.80
46366;DHT22;32073;49.166;8.076;2023-03-23T11:57:23;20.20;51.50
46366;DHT22;32073;49.166;8.076;2023-03-23T12:01:37;20.30;51.60
46366;DHT22;32073;49.166;8.076;2023-03-23T12:19:08;20.60;50.40
46366;DHT22;32073;49.166;8.076;2023-03-23T12:23:36;20.60;50.00
46366;DHT22;32073;49.166;8.076;2023-03-23T12:27:55;20.50;49.90
46366;DHT22;32073;49.166;8.076;2023-03-23T12:41:26;20.40;49.60
46366;DHT22;32073;49.166;8.076;2023-03-23T12:50:23;20.40;49.80
46366;DHT22;32073;49.166;8.076;2023-03-23T12:54:54;20.40;49.60
46366;DHT22;32073;49.166;8.076;2023-03-23T12:59:10;20.40;49.50
46366;DHT22;32073;49.166;8.076;2023-03-23T13:03:23;20.40;49.10
46366;DHT22;32073;49.166;8.076;2023-03-23T13:07:35;20.20;49.00
46366;DHT22;32073;49.166;8.076;2023-03-23T13:11:41;20.20;49.30
46366;DHT22;32073;49.166;8.076;2023-03-23T13:15:56;20.20;49.40
46366;DHT22;32073;49.166;8.076;2023-03-23T13:20:23;20.20;49.40
46366;DHT22;32073;49.166;8.076;2023-03-23T13:24:36;20.20;49.30
46366;DHT22;32073;49.166;8.076;2023-03-23T13:29:00;20.10;49.40
46366;DHT22;32073;49.166;8.076;2023-03-23T13:33:04;20.10;49.30
46366;DHT22;32073;49.166;8.076;2023-03-23T13:37:20;20.10;49.50
46366;DHT22;32073;49.166;8.076;2023-03-23T13:41:24;20.00;49.10
46366;DHT22;32073;49.166;8.076;2023-03-23T13:49:33;19.80;49.00
46366;DHT22;32073;49.166;8.076;2023-03-23T13:53:47;19.60;49.00
46366;DHT22;32073;49.166;8.076;2023-03-23T14:01:55;19.30;49.90
46366;DHT22;32073;49.166;8.076;2023-03-23T14:10:06;19.10;49.80
46366;DHT22;32073;49.166;8.076;2023-03-23T14:14:14;19.10;49.90
46366;DHT22;32073;49.166;8.076;2023-03-23T14:18:22;19.10;50.00
46366;DHT22;32073;49.166;8.076;2023-03-23T14:22:32;19.10;50.00
46366;DHT22;32073;49.166;8.076;2023-03-23T14:26:35;19.10;50.00
46366;DHT22;32073;49.166;8.076;2023-03-23T14:30:36;19.10;50.00
46366;DHT22;32073;49.166;8.076;2023-03-23T14:34:37;19.10;50.00
46366;DHT22;32073;49.166;8.076;2023-03-23T14:38:38;19.00;50.00
46366;DHT22;32073;49.166;8.076;2023-03-23T14:42:39;19.10;50.00
46366;DHT22;32073;49.166;8.076;2023-03-23T14:46:42;19.10;50.10
46366;DHT22;32073;49.166;8.076;2023-03-23T14:50:51;19.20;50.10
46366;DHT22;32073;49.166;8.076;2023-03-23T14:55:31;19.30;50.20
46366;DHT22;32073;49.166;8.076;2023-03-23T14:59:31;19.20;50.10
46366;DHT22;32073;49.166;8.076;2023-03-23T15:03:37;19.30;50.30
46366;DHT22;32073;49.166;8.076;2023-03-23T15:07:45;19.30;50.30
46366;DHT22;32073;49.166;8.076;2023-03-23T15:11:56;19.40;50.20
46366;DHT22;32073;49.166;8.076;2023-03-23T15:20:47;19.40;50.30
46366;DHT22;32073;49.166;8.076;2023-03-23T15:24:50;19.40;50.20
46366;DHT22;32073;49.166;8.076;2023-03-23T15:29:25;19.50;50.30
46366;DHT22;32073;49.166;8.076;2023-03-23T15:33:26;19.50;50.20
46366;DHT22;32073;49.166;8.076;2023-03-23T15:37:34;19.50;50.20
46366;DHT22;32073;49.166;8.076;2023-03-23T15:41:50;19.60;50.10
46366;DHT22;32073;49.166;8.076;2023-03-23T15:45:56;19.60;49.90
46366;DHT22;32073;49.166;8.076;2023-03-23T15:50:18;19.60;49.80
46366;DHT22;32073;49.166;8.076;2023-03-23T15:54:30;19.60;49.80
46366;DHT22;32073;49.166;8.076;2023-03-23T15:58:33;19.60;49.70
46366;DHT22;32073;49.166;8.076;2023-03-23T16:02:35;19.60;49.70
46366;DHT22;32073;49.166;8.076;2023-03-23T16:06:37;19.70;49.80
46366;DHT22;32073;49.166;8.076;2023-03-23T16:10:37;19.70;49.80
46366;DHT22;32073;49.166;8.076;2023-03-23T16:14:39;19.70;49.80
46366;DHT22;32073;49.166;8.076;2023-03-23T16:18:40;19.70;49.80
46366;DHT22;32073;49.166;8.076;2023-03-23T16:22:41;19.70;49.70
46366;DHT22;32073;49.166;8.076;2023-03-23T16:26:42;19.70;49.60
46366;DHT22;32073;49.166;8.076;2023-03-23T16:30:43;19.70;49.60
46366;DHT22;32073;49.166;8.076;2023-03-23T16:34:44;19.70;49.50
46366;DHT22;32073;49.166;8.076;2023-03-23T16:38:45;19.70;49.70
46366;DHT22;32073;49.166;8.076;2023-03-23T16:42:46;19.70;49.70
46366;DHT22;32073;49.166;8.076;2023-03-23T16:46:47;19.70;49.80
46366;DHT22;32073;49.166;8.076;2023-03-23T16:50:48;19.70;49.90
46366;DHT22;32073;49.166;8.076;2023-03-23T16:54:49;19.70;49.80
46366;DHT22;32073;49.166;8.076;2023-03-23T16:58:50;19.80;49.80
46366;DHT22;32073;49.166;8.076;2023-03-23T17:02:52;19.70;49.80
46366;DHT22;32073;49.166;8.076;2023-03-23T17:06:56;19.80;49.80
46366;DHT22;32073;49.166;8.076;2023-03-23T17:11:00;19.80;49.80
46366;DHT22;32073;49.166;8.076;2023-03-23T17:15:01;19.80;49.70
46366;DHT22;32073;49.166;8.076;2023-03-23T17:19:02;19.80;49.80
46366;DHT22;32073;49.166;8.076;2023-03-23T17:23:04;19.80;49.80
46366;DHT22;32073;49.166;8.076;2023-03-23T17:27:04;19.80;49.80
46366;DHT22;32073;49.166;8.076;2023-03-23T17:31:05;19.80;49.80
46366;DHT22;32073;49.166;8.076;2023-03-23T17:35:07;19.80;49.80
46366;DHT22;32073;49.166;8.076;2023-03-23T17:39:08;19.80;49.90
46366;DHT22;32073;49.166;8.076;2023-03-23T17:43:09;19.70;50.00
46366;DHT22;32073;49.166;8.076;2023-03-23T17:47:11;19.70;50.20
46366;DHT22;32073;49.166;8.076;2023-03-23T17:51:13;19.60;50.30
46366;DHT22;32073;49.166;8.076;2023-03-23T17:55:15;19.50;50.40
46366;DHT22;32073;49.166;8.076;2023-03-23T17:59:16;19.50;50.60
46366;DHT22;32073;49.166;8.076;2023-03-23T18:03:17;19.40;50.70
46366;DHT22;32073;49.166;8.076;2023-03-23T18:07:18;19.30;50.80
46366;DHT22;32073;49.166;8.076;2023-03-23T18:11:22;19.20;50.90
46366;DHT22;32073;49.166;8.076;2023-03-23T18:15:23;19.20;51.00
46366;DHT22;32073;49.166;8.076;2023-03-23T18:19:23;19.20;51.20
46366;DHT22;32073;49.166;8.076;2023-03-23T18:23:24;19.10;51.30
46366;DHT22;32073;49.166;8.076;2023-03-23T18:27:25;19.20;51.50
46366;DHT22;32073;49.166;8.076;2023-03-23T18:31:26;19.10;51.40
46366;DHT22;32073;49.166;8.076;2023-03-23T18:35:27;19.10;51.40
46366;DHT22;32073;49.166;8.076;2023-03-23T18:39:27;19.10;51.50
46366;DHT22;32073;49.166;8.076;2023-03-23T18:43:30;19.10;51.50
46366;DHT22;32073;49.166;8.076;2023-03-23T18:47:34;19.10;51.60
46366;DHT22;32073;49.166;8.076;2023-03-23T18:51:40;19.10;51.70
46366;DHT22;32073;49.166;8.076;2023-03-23T18:55:42;19.10;51.70
46366;DHT22;32073;49.166;8.076;2023-03-23T18:59:43;19.10;51.80
46366;DHT22;32073;49.166;8.076;2023-03-23T19:03:44;19.10;51.80
46366;DHT22;32073;49.166;8.076;2023-03-23T19:07:45;19.00;52.40
46366;DHT22;32073;49.166;8.076;2023-03-23T19:11:46;19.00;51.80
46366;DHT22;32073;49.166;8.076;2023-03-23T19:15:47;19.00;51.90
46366;DHT22;32073;49.166;8.076;2023-03-23T19:19:47;18.90;51.90
46366;DHT22;32073;49.166;8.076;2023-03-23T19:23:48;18.90;51.90
46366;DHT22;32073;49.166;8.076;2023-03-23T19:27:48;18.90;51.90
46366;DHT22;32073;49.166;8.076;2023-03-23T19:31:49;18.90;52.00
46366;DHT22;32073;49.166;8.076;2023-03-23T19:35:52;18.90;52.00
46366;DHT22;32073;49.166;8.076;2023-03-23T19:39:54;18.90;52.00
46366;DHT22;32073;49.166;8.076;2023-03-23T19:43:55;18.90;52.00
46366;DHT22;32073;49.166;8.076;2023-03-23T19:47:56;18.90;52.00
46366;DHT22;32073;49.166;8.076;2023-03-23T19:51:57;18.90;52.00
46366;DHT22;32073;49.166;8.076;2023-03-23T19:55:58;18.80;51.90
46366;DHT22;32073;49.166;8.076;2023-03-23T19:59:58;18.90;52.00
46366;DHT22;32073;49.166;8.076;2023-03-23T20:03:59;18.90;52.10
46366;DHT22;32073;49.166;8.076;2023-03-23T20:08:04;18.80;52.10
46366;DHT22;32073;49.166;8.076;2023-03-23T20:12:05;18.80;52.20
46366;DHT22;32073;49.166;8.076;2023-03-23T20:16:07;18.80;52.10
46366;DHT22;32073;49.166;8.076;2023-03-23T20:20:09;18.80;52.20
46366;DHT22;32073;49.166;8.076;2023-03-23T20:24:10;18.80;52.20
46366;DHT22;32073;49.166;8.076;2023-03-23T20:28:11;18.70;52.10
46366;DHT22;32073;49.166;8.076;2023-03-23T20:32:11;18.80;52.30
46366;DHT22;32073;49.166;8.076;2023-03-23T20:36:13;18.80;52.30
46366;DHT22;32073;49.166;8.076;2023-03-23T20:40:19;18.80;52.30
46366;DHT22;32073;49.166;8.076;2023-03-23T20:44:20;18.70;52.40
46366;DHT22;32073;49.166;8.076;2023-03-23T20:48:26;18.70;52.50
46366;DHT22;32073;49.166;8.076;2023-03-23T20:52:29;18.70;52.50
46366;DHT22;32073;49.166;8.076;2023-03-23T20:56:30;18.70;52.60
46366;DHT22;32073;49.166;8.076;2023-03-23T21:00:31;18.70;52.70
46366;DHT22;32073;49.166;8.076;2023-03-23T21:04:32;18.70;52.70
46366;DHT22;32073;49.166;8.076;2023-03-23T21:08:34;18.70;52.90
46366;DHT22;32073;49.166;8.076;2023-03-23T21:12:36;18.70;52.80
46366;DHT22;32073;49.166;8.076;2023-03-23T21:16:37;18.60;52.70
46366;DHT22;32073;49.166;8.076;2023-03-23T21:20:38;18.60;52.60
46366;DHT22;32073;49.166;8.076;2023-03-23T21:24:39;18.60;52.60
46366;DHT22;32073;49.166;8.076;2023-03-23T21:28:40;18.50;52.40
46366;DHT22;32073;49.166;8.076;2023-03-23T21:32:41;18.50;52.40
46366;DHT22;32073;49.166;8.076;2023-03-23T21:36:42;18.50;52.50
46366;DHT22;32073;49.166;8.076;2023-03-23T21:40:43;18.40;52.40
46366;DHT22;32073;49.166;8.076;2023-03-23T21:44:44;18.30;52.50
46366;DHT22;32073;49.166;8.076;2023-03-23T21:48:46;18.30;52.50
46366;DHT22;32073;49.166;8.076;2023-03-23T21:52:50;18.30;52.50
46366;DHT22;32073;49.166;8.076;2023-03-23T21:56:51;18.30;52.50
46366;DHT22;32073;49.166;8.076;2023-03-23T22:00:53;18.30;52.50
46366;DHT22;32073;49.166;8.076;2023-03-23T22:04:55;18.30;52.50
46366;DHT22;32073;49.166;8.076;2023-03-23T22:08:56;18.30;52.50
46366;DHT22;32073;49.166;8.076;2023-03-23T22:12:56;18.20;52.30
46366;DHT22;32073;49.166;8.076;2023-03-23T22:16:57;18.20;52.40
46366;DHT22;32073;49.166;8.076;2023-03-23T22:21:00;18.10;52.40
46366;DHT22;32073;49.166;8.076;2023-03-23T22:25:01;18.10;52.50
46366;DHT22;32073;49.166;8.076;2023-03-23T22:29:03;18.10;52.60
46366;DHT22;32073;49.166;8.076;2023-03-23T22:33:04;18.10;52.70
46366;DHT22;32073;49.166;8.076;2023-03-23T22:37:04;18.10;52.80
46366;DHT22;32073;49.166;8.076;2023-03-23T22:41:06;18.00;52.80
46366;DHT22;32073;49.166;8.076;2023-03-23T22:45:08;18.00;53.00
46366;DHT22;32073;49.166;8.076;2023-03-23T22:49:09;18.00;53.00
46366;DHT22;32073;49.166;8.076;2023-03-23T22:53:10;18.00;53.00
46366;DHT22;32073;49.166;8.076;2023-03-23T22:57:11;18.00;53.10
46366;DHT22;32073;49.166;8.076;2023-03-23T23:01:19;18.00;53.10
46366;DHT22;32073;49.166;8.076;2023-03-23T23:05:21;18.10;53.30
46366;DHT22;32073;49.166;8.076;2023-03-23T23:09:21;18.00;53.20
46366;DHT22;32073;49.166;8.076;2023-03-23T23:13:23;18.00;53.30
46366;DHT22;32073;49.166;8.076;2023-03-23T23:17:24;18.00;53.30
46366;DHT22;32073;49.166;8.076;2023-03-23T23:21:25;18.00;53.20
46366;DHT22;32073;49.166;8.076;2023-03-23T23:25:28;18.10;53.50
46366;DHT22;32073;49.166;8.076;2023-03-23T23:29:30;18.00;53.60
46366;DHT22;32073;49.166;8.076;2023-03-23T23:33:31;18.00;53.80
46366;DHT22;32073;49.166;8.076;2023-03-23T23:37:32;18.00;53.80
46366;DHT22;32073;49.166;8.076;2023-03-23T23:41:36;17.90;53.70
46366;DHT22;32073;49.166;8.076;2023-03-23T23:45:37;18.00;53.70
46366;DHT22;32073;49.166;8.076;2023-03-23T23:49:38;17.90;53.60
46366;DHT22;32073;49.166;8.076;2023-03-23T23:53:40;18.00;53.60
46366;DHT22;32073;49.166;8.076;2023-03-23T23:57:44;17.90;53.50
